Terminal Aerodrome Forecast
Issued by NWS

Home | Current Version | Previous Version | Text Only | Print | Product List | Glossary On
Versions: 1 2 3 4 5 6 7 8 9 10 11 12 13 14 15 16 17 18 19
000
FTUS43 KDTX 201700
TAFMBS
TAF
KMBS 201728Z 2018/2118 26008KT 5SM SHRA SCT025 BKN035
     FM210100 27005KT P6SM SCT045 BKN120
     FM210900 VRB03KT 3SM BR OVC015
     FM211400 25004KT P6SM BKN035=

USA.gov is the U.S. government's official web portal to all federal, state and local government web resources and services.